createdAt,value
2019-03-01T00:00:45.441Z,39.80
2019-03-01T00:01:45.400Z,39.40
2019-03-01T00:02:45.395Z,40.60
2019-03-01T00:03:45.374Z,38.40
2019-03-01T00:04:45.434Z,37.90
2019-03-01T00:05:45.365Z,39.70
2019-03-01T00:06:45.339Z,37.50
2019-03-01T00:07:45.360Z,41.10
2019-03-01T00:08:45.326Z,37.80
2019-03-01T00:09:45.309Z,39.00
2019-03-01T00:10:45.307Z,38.70
2019-03-01T00:11:45.281Z,36.00
2019-03-01T00:12:45.314Z,39.60
2019-03-01T00:13:45.264Z,39.40
2019-03-01T00:14:45.270Z,37.70
2019-03-01T00:15:45.255Z,37.90
2019-03-01T00:16:45.229Z,39.40
2019-03-01T00:17:45.250Z,38.90
2019-03-01T00:18:45.208Z,36.40
2019-03-01T00:19:45.202Z,39.60
2019-03-01T00:20:45.184Z,39.00
2019-03-01T00:21:45.174Z,37.90
2019-03-01T00:22:45.184Z,39.20
2019-03-01T00:23:45.160Z,44.20
2019-03-01T00:24:45.155Z,41.60
2019-03-01T00:25:45.134Z,38.10
2019-03-01T00:26:45.120Z,41.70
2019-03-01T00:27:45.116Z,42.60
2019-03-01T00:28:45.103Z,41.80
2019-03-01T00:29:45.082Z,40.10
2019-03-01T00:30:45.081Z,42.00
2019-03-01T00:31:45.062Z,41.30
2019-03-01T00:32:45.094Z,39.60
2019-03-01T00:33:45.044Z,42.10
2019-03-01T00:34:45.035Z,39.10
2019-03-01T00:35:45.027Z,43.10
2019-03-01T00:36:45.001Z,44.10
2019-03-01T00:37:45.004Z,41.90
2019-03-01T00:38:44.991Z,39.90
2019-03-01T00:39:44.981Z,43.10
2019-03-01T00:40:44.973Z,41.50
2019-03-01T00:41:44.959Z,44.80
2019-03-01T00:42:44.934Z,42.30
2019-03-01T00:43:44.953Z,45.40
2019-03-01T00:44:44.928Z,43.90
2019-03-01T00:45:44.916Z,42.40
2019-03-01T00:46:44.905Z,44.60
2019-03-01T00:47:44.897Z,43.00
2019-03-01T00:48:44.897Z,41.50
2019-03-01T00:49:44.894Z,46.60
2019-03-01T00:50:44.861Z,44.20
2019-03-01T00:51:44.848Z,42.90
2019-03-01T00:52:44.834Z,44.70
2019-03-01T00:53:44.839Z,44.50
2019-03-01T00:54:44.834Z,44.10
2019-03-01T00:55:44.803Z,42.80
2019-03-01T00:56:44.788Z,44.60
2019-03-01T00:57:44.770Z,41.70
2019-03-01T00:58:44.802Z,43.60
2019-03-01T00:59:44.757Z,45.50
2019-03-01T01:00:44.743Z,44.40
2019-03-01T01:01:44.736Z,44.10
2019-03-01T01:02:44.735Z,42.20
2019-03-01T01:03:44.732Z,43.40
2019-03-01T01:04:44.696Z,47.00
2019-03-01T01:05:44.683Z,44.30
2019-03-01T01:06:44.692Z,44.90
2019-03-01T01:07:44.661Z,43.40
2019-03-01T01:08:44.692Z,48.20
2019-03-01T01:09:44.647Z,45.50
2019-03-01T01:10:44.628Z,45.50
2019-03-01T01:11:44.622Z,43.80
2019-03-01T01:12:44.615Z,48.20
2019-03-01T01:13:44.629Z,45.90
2019-03-01T01:14:44.597Z,46.40
2019-03-01T01:15:44.584Z,50.40
2019-03-01T01:16:44.567Z,48.30
2019-03-01T01:17:44.556Z,47.10
2019-03-01T01:18:44.565Z,51.10
2019-03-01T01:19:44.542Z,48.20
2019-03-01T01:20:44.519Z,50.80
2019-03-01T01:21:44.516Z,48.10
2019-03-01T01:22:44.503Z,48.30
2019-03-01T01:23:44.525Z,48.40
2019-03-01T01:24:44.486Z,51.30
2019-03-01T01:25:44.477Z,47.40
2019-03-01T01:26:44.462Z,46.20
2019-03-01T01:27:44.462Z,46.00
2019-03-01T01:28:44.459Z,47.90
2019-03-01T01:29:44.426Z,48.70
2019-03-01T01:30:44.426Z,46.50
2019-03-01T01:31:44.403Z,47.50
2019-03-01T01:32:44.390Z,44.60
2019-03-01T01:33:45.272Z,50.80
2019-03-01T01:34:44.381Z,46.10
2019-03-01T01:35:44.364Z,48.40
2019-03-01T01:36:44.346Z,46.00
2019-03-01T01:37:44.341Z,44.30
2019-03-01T01:38:44.321Z,45.20
2019-03-01T01:39:44.353Z,48.80
2019-03-01T01:40:44.301Z,46.70
2019-03-01T01:41:44.297Z,45.90
2019-03-01T01:42:44.286Z,50.40
2019-03-01T01:43:44.301Z,46.80
2019-03-01T01:44:44.286Z,50.20
2019-03-01T01:45:44.257Z,48.10
2019-03-01T01:46:44.240Z,48.10
2019-03-01T01:47:44.225Z,44.00
2019-03-01T01:48:44.213Z,44.10
2019-03-01T01:49:44.234Z,44.40
2019-03-01T01:50:44.213Z,47.00
2019-03-01T01:51:44.190Z,46.90
2019-03-01T01:52:44.177Z,50.40
2019-03-01T01:53:44.169Z,42.40
2019-03-01T01:55:53.366Z,41.90
2019-03-01T01:56:54.333Z,41.90
2019-03-01T01:57:54.328Z,44.00
2019-03-01T01:58:54.306Z,45.60
2019-03-01T01:59:54.309Z,45.50
2019-03-01T02:00:54.337Z,44.80
2019-03-01T02:01:54.276Z,46.50
2019-03-01T02:02:54.261Z,46.00
2019-03-01T02:03:54.259Z,46.50
2019-03-01T02:04:54.239Z,44.90
2019-03-01T02:05:54.261Z,47.40
2019-03-01T02:06:54.228Z,46.70
2019-03-01T02:07:54.210Z,46.00
2019-03-01T02:08:54.205Z,42.60
2019-03-01T02:09:54.180Z,44.40
2019-03-01T02:10:54.205Z,43.90
2019-03-01T02:11:54.175Z,45.10
2019-03-01T02:12:54.148Z,46.30
2019-03-01T02:13:54.145Z,43.10
2019-03-01T02:14:54.135Z,44.00
2019-03-01T02:15:54.147Z,43.40
2019-03-01T02:16:54.131Z,42.90
2019-03-01T02:17:54.092Z,41.50
2019-03-01T02:18:57.704Z,43.70
2019-03-01T02:19:54.078Z,44.60
2019-03-01T02:20:54.072Z,44.10
2019-03-01T02:21:54.057Z,44.50
2019-03-01T02:22:54.047Z,43.60
2019-03-01T02:23:54.040Z,41.80
2019-03-01T02:24:54.023Z,44.80
2019-03-01T02:25:54.009Z,45.40
2019-03-01T02:26:54.010Z,44.10
2019-03-01T02:27:53.996Z,41.90
2019-03-01T02:28:53.986Z,45.60
2019-03-01T02:29:53.968Z,44.90
2019-03-01T02:30:53.962Z,45.20
2019-03-01T02:31:53.976Z,40.70
2019-03-01T02:32:53.942Z,41.20
2019-03-01T02:33:53.924Z,42.60
2019-03-01T02:34:53.922Z,45.20
2019-03-01T02:35:53.905Z,43.50
2019-03-01T02:36:53.935Z,47.00
2019-03-01T02:37:53.900Z,48.70
2019-03-01T02:38:53.877Z,45.40
2019-03-01T02:39:53.873Z,44.30
2019-03-01T02:40:53.853Z,44.80
2019-03-01T02:41:53.859Z,47.60
2019-03-01T02:42:53.826Z,42.80
2019-03-01T02:43:53.812Z,44.20
2019-03-01T02:44:53.807Z,44.90
2019-03-01T02:45:53.781Z,47.10
2019-03-01T02:46:53.803Z,42.30
2019-03-01T02:47:53.792Z,44.90
2019-03-01T02:48:53.754Z,43.50
2019-03-01T02:49:53.749Z,42.20
2019-03-01T02:50:53.725Z,46.10
2019-03-01T02:51:53.752Z,46.70
2019-03-01T02:52:53.719Z,45.80
2019-03-01T02:53:53.702Z,41.20
2019-03-01T02:54:53.685Z,46.20
2019-03-01T02:55:53.686Z,42.80
2019-03-01T02:56:53.680Z,42.90
2019-03-01T02:57:53.752Z,40.80
2019-03-01T02:58:53.650Z,44.80
2019-03-01T02:59:53.632Z,44.00
2019-03-01T03:00:53.630Z,45.60
2019-03-01T03:01:53.650Z,42.40
2019-03-01T03:02:53.614Z,43.70
2019-03-01T03:03:53.587Z,42.80
2019-03-01T03:04:53.581Z,45.80
2019-03-01T03:05:53.567Z,42.50
2019-03-01T03:06:53.581Z,41.10
2019-03-01T03:07:53.557Z,44.50
2019-03-01T03:08:53.536Z,42.70
2019-03-01T03:09:53.520Z,44.90
2019-03-01T03:10:53.511Z,43.50
2019-03-01T03:11:53.507Z,41.90
2019-03-01T03:12:53.529Z,44.10
2019-03-01T03:13:53.481Z,41.80
2019-03-01T03:14:53.463Z,44.10
2019-03-01T03:15:53.461Z,40.70
2019-03-01T03:16:53.448Z,42.60
2019-03-01T03:17:53.478Z,45.50
2019-03-01T03:18:53.444Z,45.30
2019-03-01T03:19:53.404Z,43.70
2019-03-01T03:20:53.399Z,45.30
2019-03-01T03:21:53.400Z,45.80
2019-03-01T03:22:53.400Z,45.50
2019-03-01T03:23:53.384Z,43.50
2019-03-01T03:24:53.356Z,44.40
2019-03-01T03:25:53.337Z,45.90
2019-03-01T03:26:53.362Z,45.80
2019-03-01T03:27:53.341Z,44.10
2019-03-01T03:28:53.313Z,42.50
2019-03-01T03:29:53.304Z,42.70
2019-03-01T03:30:53.281Z,47.40
2019-03-01T03:31:53.297Z,45.40
2019-03-01T03:32:53.284Z,46.20
2019-03-01T03:33:53.268Z,44.00
2019-03-01T03:34:53.247Z,45.50
2019-03-01T03:35:53.231Z,48.20
2019-03-01T03:36:53.224Z,46.30
2019-03-01T03:37:53.239Z,44.00
2019-03-01T03:38:53.215Z,47.90
2019-03-01T03:39:53.186Z,45.80
2019-03-01T03:40:53.201Z,46.10
2019-03-01T03:41:53.176Z,46.60
2019-03-01T03:42:53.183Z,47.40
2019-03-01T03:43:53.140Z,47.40
2019-03-01T03:44:53.139Z,47.50
2019-03-01T03:45:53.125Z,46.70
2019-03-01T03:46:53.109Z,44.80
2019-03-01T03:47:53.133Z,49.40
2019-03-01T03:48:53.088Z,46.80
2019-03-01T03:49:53.086Z,45.90
2019-03-01T03:50:53.079Z,49.50
2019-03-01T03:51:53.087Z,48.70
2019-03-01T03:52:53.077Z,51.50
2019-03-01T03:53:53.041Z,49.70
2019-03-01T03:54:53.022Z,50.00
2019-03-01T03:57:02.227Z,44.50
2019-03-01T03:58:03.236Z,48.80
2019-03-01T03:59:03.197Z,50.00
2019-03-01T04:00:03.232Z,50.30
2019-03-01T04:01:03.166Z,49.70
2019-03-01T04:02:03.155Z,49.80
2019-03-01T04:03:03.167Z,50.50
2019-03-01T04:04:03.133Z,51.10
2019-03-01T04:05:03.133Z,48.60
2019-03-01T04:06:03.110Z,49.00
2019-03-01T04:07:03.102Z,48.60
2019-03-01T04:08:03.118Z,48.10
2019-03-01T04:09:03.089Z,46.00
2019-03-01T04:10:03.085Z,51.60
2019-03-01T04:11:03.060Z,50.00
2019-03-01T04:12:03.065Z,48.10
2019-03-01T04:13:03.065Z,49.40
2019-03-01T04:14:03.031Z,48.90
2019-03-01T04:15:03.023Z,50.40
2019-03-01T04:16:03.011Z,50.60
2019-03-01T04:17:03.020Z,49.00
2019-03-01T04:18:02.975Z,48.40
2019-03-01T04:19:03.008Z,51.70
2019-03-01T04:20:02.965Z,48.90
2019-03-01T04:21:02.959Z,51.50
2019-03-01T04:22:02.941Z,51.50
2019-03-01T04:23:02.921Z,48.60
2019-03-01T04:24:02.937Z,52.60
2019-03-01T04:25:02.907Z,51.30
2019-03-01T04:26:02.886Z,49.40
2019-03-01T04:27:02.901Z,51.10
2019-03-01T04:28:02.879Z,48.90
2019-03-01T04:29:02.880Z,50.50
2019-03-01T04:30:03.140Z,52.60
2019-03-01T04:31:02.843Z,51.70
2019-03-01T04:32:02.861Z,52.70
2019-03-01T04:33:02.817Z,54.00
2019-03-01T04:34:02.835Z,53.50
2019-03-01T04:35:02.801Z,52.50
2019-03-01T04:36:02.799Z,49.80
2019-03-01T04:37:02.772Z,52.00
2019-03-01T04:38:02.761Z,52.20
2019-03-01T04:39:02.797Z,54.80
2019-03-01T04:40:02.773Z,55.90
2019-03-01T04:41:02.733Z,55.30
2019-03-01T04:42:02.757Z,54.70
2019-03-01T04:43:02.722Z,54.00
2019-03-01T04:44:02.734Z,53.70
2019-03-01T04:45:02.702Z,55.90
2019-03-01T04:46:02.675Z,53.70
2019-03-01T04:47:02.660Z,54.00
2019-03-01T04:48:02.660Z,56.40
2019-03-01T04:49:02.660Z,55.00
2019-03-01T04:50:02.626Z,57.10
2019-03-01T04:51:02.620Z,59.40
2019-03-01T04:52:02.605Z,54.70
2019-03-01T04:53:02.593Z,58.80
2019-03-01T04:54:02.603Z,59.00
2019-03-01T04:55:02.576Z,55.50
2019-03-01T04:56:02.565Z,60.90
2019-03-01T04:57:02.555Z,58.00
2019-03-01T04:58:02.534Z,60.10
2019-03-01T04:59:02.543Z,62.00
2019-03-01T05:00:02.526Z,64.30
2019-03-01T05:01:02.525Z,64.70
2019-03-01T05:02:02.498Z,65.00
2019-03-01T05:03:02.477Z,65.70
2019-03-01T05:04:02.492Z,60.70
2019-03-01T05:05:02.464Z,62.70
2019-03-01T05:06:02.465Z,62.70
2019-03-01T05:07:02.447Z,66.50
2019-03-01T05:08:02.439Z,65.00
2019-03-01T05:09:02.437Z,65.90
2019-03-01T05:10:02.410Z,66.70
2019-03-01T05:11:02.394Z,68.50
2019-03-01T05:12:02.407Z,66.40
2019-03-01T05:13:02.367Z,66.10
2019-03-01T05:14:02.384Z,65.30
2019-03-01T05:15:02.353Z,66.60
2019-03-01T05:16:02.338Z,65.30
2019-03-01T05:17:02.342Z,66.10
2019-03-01T05:18:02.318Z,60.70
2019-03-01T05:19:02.332Z,64.50
2019-03-01T05:20:02.315Z,63.40
2019-03-01T05:21:02.284Z,64.10
2019-03-01T05:22:02.276Z,65.50
2019-03-01T05:23:02.266Z,69.70
2019-03-01T05:24:02.273Z,67.00
2019-03-01T05:25:02.259Z,67.10
2019-03-01T05:26:02.219Z,65.00
2019-03-01T05:27:02.241Z,67.40
2019-03-01T05:28:02.198Z,68.60
2019-03-01T05:29:02.220Z,71.30
2019-03-01T05:30:02.193Z,68.00
2019-03-01T05:31:02.177Z,68.00
2019-03-01T05:32:02.165Z,66.00
2019-03-01T05:33:02.157Z,65.70
2019-03-01T05:34:02.160Z,67.60
2019-03-01T05:35:02.135Z,64.00
2019-03-01T05:36:02.119Z,65.50
2019-03-01T05:37:02.105Z,65.50
2019-03-01T05:38:02.088Z,71.00
2019-03-01T05:39:02.100Z,65.20
2019-03-01T05:40:02.085Z,68.90
2019-03-01T05:41:02.056Z,67.60
2019-03-01T05:42:02.059Z,68.50
2019-03-01T05:43:02.038Z,71.70
2019-03-01T05:44:02.030Z,73.40
2019-03-01T05:45:02.046Z,72.70
2019-03-01T05:46:02.020Z,74.90
2019-03-01T05:47:01.986Z,70.80
2019-03-01T05:48:01.986Z,71.30
2019-03-01T05:49:01.969Z,75.00
2019-03-01T05:50:01.995Z,73.30
2019-03-01T05:51:01.949Z,69.70
2019-03-01T05:52:01.940Z,69.30
2019-03-01T05:53:01.939Z,69.20
2019-03-01T05:54:01.917Z,69.80
2019-03-01T05:55:01.954Z,68.60
2019-03-01T05:56:01.895Z,73.40
2019-03-01T05:58:16.447Z,68.20
2019-03-01T05:59:12.357Z,67.80
2019-03-01T06:00:12.378Z,69.20
2019-03-01T06:01:12.347Z,65.80
2019-03-01T06:02:12.323Z,67.10
2019-03-01T06:03:12.317Z,68.50
2019-03-01T06:04:12.302Z,65.80
2019-03-01T06:05:12.317Z,67.10
2019-03-01T06:06:12.283Z,66.10
2019-03-01T06:07:12.282Z,66.40
2019-03-01T06:08:12.267Z,66.80
2019-03-01T06:09:12.251Z,65.80
2019-03-01T06:10:12.280Z,71.50
2019-03-01T06:11:12.239Z,68.90
2019-03-01T06:12:12.221Z,69.00
2019-03-01T06:13:12.210Z,71.10
2019-03-01T06:14:12.217Z,71.50
2019-03-01T06:15:12.213Z,71.00
2019-03-01T06:16:12.180Z,73.30
2019-03-01T06:17:12.158Z,72.50
2019-03-01T06:18:12.157Z,70.60
2019-03-01T06:19:12.146Z,73.20
2019-03-01T06:20:12.142Z,75.00
2019-03-01T06:21:12.120Z,76.50
2019-03-01T06:22:12.105Z,77.00
2019-03-01T06:23:12.097Z,76.70
2019-03-01T06:24:12.079Z,77.90
2019-03-01T06:25:12.105Z,72.80
2019-03-01T06:26:12.064Z,75.60
2019-03-01T06:27:12.046Z,74.70
2019-03-01T06:28:12.046Z,77.40
2019-03-01T06:29:12.023Z,80.60
2019-03-01T06:30:12.010Z,74.60
2019-03-01T06:31:12.013Z,79.60
2019-03-01T06:32:11.999Z,76.80
2019-03-01T06:33:11.985Z,77.90
2019-03-01T06:34:11.984Z,78.30
2019-03-01T06:35:11.964Z,78.20
2019-03-01T06:36:12.118Z,76.90
2019-03-01T06:37:11.931Z,73.80
2019-03-01T06:38:11.932Z,79.20
2019-03-01T06:39:11.971Z,79.70
2019-03-01T06:40:11.944Z,81.50
2019-03-01T06:41:11.933Z,84.30
2019-03-01T06:42:11.944Z,81.70
2019-03-01T06:43:12.002Z,82.80
2019-03-01T06:44:11.894Z,81.50
2019-03-01T06:45:11.876Z,84.30
2019-03-01T06:46:11.870Z,82.70
2019-03-01T06:47:11.830Z,84.60
2019-03-01T06:48:11.816Z,86.20
2019-03-01T06:49:11.818Z,85.30
2019-03-01T06:50:13.130Z,81.30
2019-03-01T06:51:11.794Z,87.10
2019-03-01T06:52:12.359Z,89.20
2019-03-01T06:53:11.773Z,88.10
2019-03-01T06:54:11.746Z,87.60
2019-03-01T06:55:11.765Z,83.10
2019-03-01T06:56:11.746Z,83.50
2019-03-01T06:57:11.720Z,84.10
2019-03-01T06:58:11.737Z,83.60
2019-03-01T06:59:12.913Z,82.30
2019-03-01T07:00:11.741Z,83.90
2019-03-01T07:01:11.673Z,84.20
2019-03-01T07:02:11.668Z,84.30
2019-03-01T07:03:11.676Z,85.20
2019-03-01T07:04:11.650Z,84.70
2019-03-01T07:05:11.737Z,84.40
2019-03-01T07:06:11.635Z,85.90
2019-03-01T07:07:11.646Z,81.70
2019-03-01T07:08:11.654Z,81.20
2019-03-01T07:09:11.591Z,78.70
2019-03-01T07:10:11.582Z,83.80
2019-03-01T07:11:11.569Z,82.70
2019-03-01T07:12:11.546Z,84.30
2019-03-01T07:13:11.567Z,80.30
2019-03-01T07:14:11.558Z,78.90
2019-03-01T07:15:11.864Z,79.30
2019-03-01T07:16:11.511Z,81.70
2019-03-01T07:17:11.518Z,79.80
2019-03-01T07:18:11.507Z,83.50
2019-03-01T07:19:11.497Z,84.60
2019-03-01T07:20:12.684Z,82.90
2019-03-01T07:21:11.476Z,80.90
2019-03-01T07:22:11.447Z,84.50
2019-03-01T07:23:11.463Z,89.60
2019-03-01T07:24:11.476Z,89.30
2019-03-01T07:25:11.403Z,85.40
2019-03-01T07:26:11.394Z,84.20
2019-03-01T07:27:12.352Z,83.10
2019-03-01T07:28:11.401Z,82.10
2019-03-01T07:29:11.442Z,81.20
2019-03-01T07:30:11.342Z,88.70
2019-03-01T07:31:11.359Z,86.10
2019-03-01T07:32:11.337Z,85.30
2019-03-01T07:33:11.349Z,86.70
2019-03-01T07:34:11.306Z,82.10
2019-03-01T07:35:11.382Z,81.80
2019-03-01T07:36:11.280Z,85.20
2019-03-01T07:37:11.295Z,82.40
2019-03-01T07:38:11.290Z,82.30
2019-03-01T07:39:11.294Z,80.40
2019-03-01T07:40:11.288Z,86.50
2019-03-01T07:41:11.263Z,79.40
2019-03-01T07:42:11.227Z,81.30
2019-03-01T07:43:11.228Z,79.30
2019-03-01T07:44:32.217Z,86.60
2019-03-01T07:45:11.223Z,78.30
2019-03-01T07:46:11.175Z,78.90
2019-03-01T07:47:11.176Z,78.80
2019-03-01T07:48:11.222Z,79.60
2019-03-01T07:49:11.172Z,79.30
2019-03-01T07:50:11.136Z,79.20
2019-03-01T07:51:11.116Z,81.70
2019-03-01T07:52:11.100Z,79.20
2019-03-01T07:53:11.114Z,81.30
2019-03-01T07:54:13.249Z,79.90
2019-03-01T07:55:11.065Z,78.10
2019-03-01T07:56:11.055Z,76.40
2019-03-01T07:57:11.516Z,74.30
2019-03-01T07:59:21.371Z,66.50
2019-03-01T08:00:22.334Z,73.30
2019-03-01T08:01:22.267Z,77.30
2019-03-01T08:02:22.253Z,76.70
2019-03-01T08:03:22.252Z,74.00
2019-03-01T08:04:23.811Z,74.70
2019-03-01T08:05:22.251Z,76.30
2019-03-01T08:06:22.210Z,74.90
2019-03-01T08:07:23.607Z,72.00
2019-03-01T08:08:22.190Z,73.40
2019-03-01T08:09:22.201Z,69.80
2019-03-01T08:10:23.239Z,70.80
2019-03-01T08:11:22.153Z,72.00
2019-03-01T08:12:22.144Z,70.80
2019-03-01T08:13:22.135Z,69.70
2019-03-01T08:14:24.597Z,74.50
2019-03-01T08:15:22.112Z,69.70
2019-03-01T08:16:22.104Z,71.50
2019-03-01T08:17:22.090Z,69.70
2019-03-01T08:18:22.086Z,73.90
2019-03-01T08:19:23.491Z,70.60
2019-03-01T08:20:22.072Z,72.10
2019-03-01T08:21:22.038Z,70.70
2019-03-01T08:22:25.011Z,69.30
2019-03-01T08:23:22.022Z,71.10
2019-03-01T08:24:22.022Z,70.20
2019-03-01T08:25:23.641Z,72.40
2019-03-01T08:26:21.984Z,67.90
2019-03-01T08:27:21.987Z,67.00
2019-03-01T08:28:23.039Z,68.30
2019-03-01T08:29:21.960Z,66.70
2019-03-01T08:30:21.989Z,70.10
2019-03-01T08:31:22.256Z,67.40
2019-03-01T08:32:21.918Z,68.10
2019-03-01T08:33:21.928Z,66.60
2019-03-01T08:34:21.903Z,67.00
2019-03-01T08:35:21.926Z,66.30
2019-03-01T08:36:21.889Z,66.80
2019-03-01T08:37:21.978Z,70.40
2019-03-01T08:38:21.899Z,69.00
2019-03-01T08:39:21.909Z,68.30
2019-03-01T08:40:21.862Z,67.70
2019-03-01T08:41:25.175Z,66.10
2019-03-01T08:42:21.812Z,70.30
2019-03-01T08:43:21.800Z,68.10
2019-03-01T08:44:22.962Z,64.70
2019-03-01T08:45:21.814Z,61.60
2019-03-01T08:46:22.557Z,66.50
2019-03-01T08:47:24.526Z,63.20
2019-03-01T08:48:21.777Z,66.00
2019-03-01T08:49:21.744Z,65.90
2019-03-01T08:50:21.773Z,62.40
2019-03-01T08:51:22.714Z,66.50
2019-03-01T08:52:21.705Z,62.00
2019-03-01T08:53:21.698Z,67.10
2019-03-01T08:54:22.883Z,64.60
2019-03-01T08:55:21.708Z,63.90
2019-03-01T08:56:26.158Z,60.00
2019-03-01T08:57:22.583Z,64.50
2019-03-01T08:58:21.646Z,65.20
2019-03-01T08:59:21.625Z,65.50
2019-03-01T09:00:26.363Z,64.80
2019-03-01T09:01:21.751Z,63.00
2019-03-01T09:02:21.602Z,64.10
2019-03-01T09:03:22.954Z,62.70
2019-03-01T09:04:21.731Z,60.80
2019-03-01T09:05:21.600Z,64.70
2019-03-01T09:06:21.626Z,62.50
2019-03-01T09:07:21.538Z,62.20
2019-03-01T09:08:21.538Z,61.20
2019-03-01T09:09:21.981Z,64.30
2019-03-01T09:10:21.583Z,61.50
2019-03-01T09:11:21.501Z,64.20
2019-03-01T09:12:22.508Z,64.20
2019-03-01T09:13:21.468Z,63.40
2019-03-01T09:14:22.791Z,63.30
2019-03-01T09:15:21.488Z,58.40
2019-03-01T09:16:21.474Z,56.00
2019-03-01T09:17:21.424Z,60.90
2019-03-01T09:18:21.415Z,65.40
2019-03-01T09:19:22.403Z,59.50
2019-03-01T09:20:21.412Z,57.80
2019-03-01T09:21:21.456Z,59.30
2019-03-01T09:22:24.160Z,61.90
2019-03-01T09:23:25.256Z,59.50
2019-03-01T09:24:21.363Z,58.80
2019-03-01T09:25:21.445Z,61.50
2019-03-01T09:26:21.340Z,59.40
2019-03-01T09:27:22.765Z,60.50
2019-03-01T09:28:21.313Z,59.10
2019-03-01T09:29:21.293Z,59.20
2019-03-01T09:30:21.336Z,58.70
2019-03-01T09:31:21.316Z,59.40
2019-03-01T09:32:21.279Z,62.30
2019-03-01T09:33:22.982Z,62.40
2019-03-01T09:34:21.249Z,65.80
2019-03-01T09:35:21.755Z,69.50
2019-03-01T09:36:21.532Z,73.00
2019-03-01T09:37:21.214Z,70.20
2019-03-01T09:38:21.199Z,71.30
2019-03-01T09:39:21.195Z,74.10
2019-03-01T09:40:21.211Z,80.00
2019-03-01T09:41:21.171Z,71.90
2019-03-01T09:42:21.146Z,72.60
2019-03-01T09:43:21.142Z,80.10
2019-03-01T09:44:21.125Z,80.20
2019-03-01T09:45:21.144Z,75.40
2019-03-01T09:46:24.824Z,85.40
2019-03-01T09:47:21.120Z,83.90
2019-03-01T09:48:21.093Z,80.90
2019-03-01T09:49:21.339Z,81.40
2019-03-01T09:50:21.096Z,80.00
2019-03-01T09:51:21.085Z,77.60
2019-03-01T09:52:23.513Z,73.50
2019-03-01T09:53:21.034Z,71.40
2019-03-01T09:54:21.026Z,77.40
2019-03-01T09:55:21.049Z,75.90
2019-03-01T09:56:21.012Z,73.00
2019-03-01T09:57:20.988Z,74.10
2019-03-01T09:58:20.980Z,75.70
2019-03-01T10:00:32.723Z,76.00
2019-03-01T10:01:33.674Z,76.40
2019-03-01T10:02:33.661Z,72.80
2019-03-01T10:03:33.653Z,75.40
2019-03-01T10:04:33.676Z,72.00
2019-03-01T10:05:33.665Z,73.70
2019-03-01T10:06:38.075Z,71.60
2019-03-01T10:07:33.612Z,73.40
2019-03-01T10:08:33.619Z,67.00
2019-03-01T10:09:33.601Z,66.50
2019-03-01T10:10:33.606Z,64.20
2019-03-01T10:11:33.586Z,59.50
2019-03-01T10:12:33.560Z,63.20
2019-03-01T10:14:33.650Z,62.50
2019-03-01T10:15:33.554Z,64.00
2019-03-01T10:16:33.524Z,62.50
2019-03-01T10:17:33.518Z,64.80
2019-03-01T10:18:33.492Z,66.10
2019-03-01T10:19:33.475Z,66.60
2019-03-01T10:20:33.539Z,63.10
2019-03-01T10:21:33.486Z,64.90
2019-03-01T10:22:33.450Z,62.90
2019-03-01T10:23:33.446Z,67.80
2019-03-01T10:24:33.440Z,61.10
2019-03-01T10:25:33.433Z,64.20
2019-03-01T10:26:33.690Z,64.50
2019-03-01T10:27:33.426Z,61.10
2019-03-01T10:28:33.385Z,61.20
2019-03-01T10:29:33.547Z,63.20
2019-03-01T10:30:33.535Z,62.20
2019-03-01T10:31:33.386Z,62.70
2019-03-01T10:32:33.385Z,63.10
2019-03-01T10:33:33.333Z,58.30
2019-03-01T10:34:33.474Z,61.00
2019-03-01T10:35:33.828Z,59.20
2019-03-01T10:36:33.436Z,58.50
2019-03-01T10:37:33.305Z,61.00
2019-03-01T10:38:33.279Z,59.90
2019-03-01T10:39:33.274Z,58.20
2019-03-01T10:40:33.281Z,55.90
2019-03-01T10:41:33.260Z,56.10
2019-03-01T10:42:33.243Z,54.00
2019-03-01T10:43:33.256Z,54.90
2019-03-01T10:44:33.210Z,59.70
2019-03-01T10:45:33.253Z,57.10
2019-03-01T10:46:33.550Z,56.80
2019-03-01T10:47:33.181Z,53.00
2019-03-01T10:48:33.164Z,54.20
2019-03-01T10:49:33.158Z,58.10
2019-03-01T10:50:33.160Z,54.40
2019-03-01T10:51:33.186Z,51.60
2019-03-01T10:52:33.141Z,49.50
2019-03-01T10:53:33.134Z,53.50
2019-03-01T10:54:33.108Z,54.80
2019-03-01T10:55:33.112Z,51.10
2019-03-01T10:56:33.134Z,53.00
2019-03-01T10:57:33.103Z,52.50
2019-03-01T10:58:33.069Z,51.60
2019-03-01T10:59:33.062Z,49.70
2019-03-01T11:00:33.080Z,51.10
2019-03-01T11:01:33.051Z,54.50
2019-03-01T11:02:33.010Z,52.10
2019-03-01T11:03:33.006Z,54.80
2019-03-01T11:04:33.041Z,51.40
2019-03-01T11:05:32.973Z,49.70
2019-03-01T11:06:33.014Z,52.20
2019-03-01T11:07:32.956Z,51.70
2019-03-01T11:08:32.952Z,51.50
2019-03-01T11:09:32.942Z,48.90
2019-03-01T11:10:32.930Z,49.50
2019-03-01T11:11:32.937Z,48.10
2019-03-01T11:12:32.931Z,52.40
2019-03-01T11:13:32.920Z,48.10
2019-03-01T11:14:32.881Z,44.90
2019-03-01T11:15:32.881Z,51.70
2019-03-01T11:16:32.886Z,49.60
2019-03-01T11:17:32.856Z,48.60
2019-03-01T11:18:32.840Z,45.90
2019-03-01T11:19:32.853Z,43.80
2019-03-01T11:20:32.814Z,46.50
2019-03-01T11:21:32.831Z,43.10
2019-03-01T11:22:32.806Z,40.80
2019-03-01T11:23:32.791Z,44.80
2019-03-01T11:24:33.083Z,43.80
2019-03-01T11:25:32.766Z,46.30
2019-03-01T11:26:32.776Z,39.50
2019-03-01T11:27:32.752Z,45.90
2019-03-01T11:28:32.733Z,42.20
2019-03-01T11:29:32.749Z,45.90
2019-03-01T11:30:32.721Z,44.60
2019-03-01T11:31:32.762Z,44.00
2019-03-01T11:32:32.716Z,44.00
2019-03-01T11:33:32.668Z,44.90
2019-03-01T11:34:32.668Z,44.50
2019-03-01T11:35:32.657Z,48.10
2019-03-01T11:36:32.667Z,51.20
2019-03-01T11:37:32.637Z,57.30
2019-03-01T11:38:32.617Z,55.40
2019-03-01T11:39:32.615Z,57.10
2019-03-01T11:40:32.604Z,58.40
2019-03-01T11:41:32.619Z,62.30
2019-03-01T11:42:32.594Z,62.10
2019-03-01T11:43:33.797Z,62.70
2019-03-01T11:44:32.566Z,63.70
2019-03-01T11:45:32.539Z,65.00
2019-03-01T11:46:32.568Z,63.80
2019-03-01T11:47:32.552Z,66.00
2019-03-01T11:48:32.511Z,65.80
2019-03-01T11:49:32.493Z,64.80
2019-03-01T11:50:32.539Z,64.10
2019-03-01T11:51:32.504Z,67.20
2019-03-01T11:52:32.462Z,65.40
2019-03-01T11:53:32.449Z,69.50
2019-03-01T11:54:32.446Z,69.10
2019-03-01T11:55:32.438Z,70.00
2019-03-01T11:56:32.439Z,67.40
2019-03-01T11:57:32.421Z,69.30
2019-03-01T11:58:32.415Z,70.80
2019-03-01T11:59:32.393Z,71.20
2019-03-01T12:01:42.688Z,70.40
2019-03-01T12:02:43.660Z,68.30
2019-03-01T12:03:43.649Z,73.60
2019-03-01T12:04:43.621Z,69.50
2019-03-01T12:05:44.061Z,70.70
2019-03-01T12:06:43.758Z,66.80
2019-03-01T12:07:43.615Z,71.00
2019-03-01T12:08:43.645Z,66.40
2019-03-01T12:09:43.593Z,69.60
2019-03-01T12:10:43.578Z,72.60
2019-03-01T12:11:43.595Z,70.30
2019-03-01T12:12:43.562Z,69.10
2019-03-01T12:13:43.565Z,68.80
2019-03-01T12:14:43.520Z,72.30
2019-03-01T12:15:43.540Z,76.60
2019-03-01T12:16:43.527Z,75.80
2019-03-01T12:17:43.516Z,74.30
2019-03-01T12:18:43.485Z,75.30
2019-03-01T12:19:43.521Z,75.40
2019-03-01T12:20:43.463Z,75.90
2019-03-01T12:21:43.476Z,80.40
2019-03-01T12:22:43.445Z,81.10
2019-03-01T12:23:43.429Z,76.90
2019-03-01T12:24:43.408Z,73.80
2019-03-01T12:25:43.417Z,82.20
2019-03-01T12:26:43.421Z,79.20
2019-03-01T12:27:43.419Z,76.80
2019-03-01T12:28:43.370Z,77.60
2019-03-01T12:29:43.363Z,80.80
2019-03-01T12:30:43.346Z,77.80
2019-03-01T12:31:43.334Z,73.80
2019-03-01T12:32:43.317Z,73.70
2019-03-01T12:33:43.353Z,70.30
2019-03-01T12:34:43.296Z,68.20
2019-03-01T12:35:43.284Z,64.40
2019-03-01T12:36:43.275Z,61.90
2019-03-01T12:37:43.275Z,59.60
2019-03-01T12:38:43.271Z,61.60
2019-03-01T12:39:43.247Z,62.60
2019-03-01T12:40:43.228Z,55.90
2019-03-01T12:41:43.218Z,60.60
2019-03-01T12:42:43.233Z,60.90
2019-03-01T12:43:43.225Z,63.70
2019-03-01T12:44:43.199Z,59.10
2019-03-01T12:45:43.178Z,64.20
2019-03-01T12:46:43.174Z,60.70
2019-03-01T12:47:43.163Z,59.90
2019-03-01T12:48:43.247Z,54.30
2019-03-01T12:49:43.135Z,57.60
2019-03-01T12:50:43.136Z,57.20
2019-03-01T12:51:43.125Z,54.80
2019-03-01T12:52:43.110Z,54.80
2019-03-01T12:53:43.132Z,51.70
2019-03-01T12:54:43.109Z,52.90
2019-03-01T12:55:43.071Z,51.10
2019-03-01T12:56:43.064Z,52.00
2019-03-01T12:57:43.054Z,49.40
2019-03-01T12:58:43.032Z,47.60
2019-03-01T12:59:43.045Z,46.90
2019-03-01T13:00:43.007Z,47.70